sensor_id;sensor_type;location;lat;lon;timestamp;temperature;humidity
4749;DHT22;2388;53.582;9.962;2022-09-03T00:00:29;17.00;91.70
4749;DHT22;2388;53.582;9.962;2022-09-03T00:03:11;17.00;91.90
4749;DHT22;2388;53.582;9.962;2022-09-03T00:05:54;17.00;91.90
4749;DHT22;2388;53.582;9.962;2022-09-03T00:08:27;17.00;91.90
4749;DHT22;2388;53.582;9.962;2022-09-03T00:11:02;17.00;92.00
4749;DHT22;2388;53.582;9.962;2022-09-03T00:13:35;17.00;92.00
4749;DHT22;2388;53.582;9.962;2022-09-03T00:16:07;17.00;92.20
4749;DHT22;2388;53.582;9.962;2022-09-03T00:18:40;16.90;92.20
4749;DHT22;2388;53.582;9.962;2022-09-03T00:21:10;16.90;92.30
4749;DHT22;2388;53.582;9.962;2022-09-03T00:23:41;16.90;92.30
4749;DHT22;2388;53.582;9.962;2022-09-03T00:31:40;16.70;92.70
4749;DHT22;2388;53.582;9.962;2022-09-03T00:34:33;16.70;92.90
4749;DHT22;2388;53.582;9.962;2022-09-03T00:37:00;16.70;93.20
4749;DHT22;2388;53.582;9.962;2022-09-03T00:39:26;16.60;93.20
4749;DHT22;2388;53.582;9.962;2022-09-03T00:47:41;16.60;93.30
4749;DHT22;2388;53.582;9.962;2022-09-03T00:50:42;16.60;93.40
4749;DHT22;2388;53.582;9.962;2022-09-03T00:59:36;16.50;93.90
4749;DHT22;2388;53.582;9.962;2022-09-03T01:02:34;16.40;94.00
4749;DHT22;2388;53.582;9.962;2022-09-03T01:05:10;16.40;94.00
4749;DHT22;2388;53.582;9.962;2022-09-03T01:10:29;16.40;94.10
4749;DHT22;2388;53.582;9.962;2022-09-03T01:18:28;16.40;94.00
4749;DHT22;2388;53.582;9.962;2022-09-03T01:27:02;16.30;94.60
4749;DHT22;2388;53.582;9.962;2022-09-03T01:29:42;16.30;94.70
4749;DHT22;2388;53.582;9.962;2022-09-03T01:33:15;16.30;94.90
4749;DHT22;2388;53.582;9.962;2022-09-03T01:35:36;16.30;94.60
4749;DHT22;2388;53.582;9.962;2022-09-03T01:38:30;16.20;94.80
4749;DHT22;2388;53.582;9.962;2022-09-03T01:41:12;16.20;94.80
4749;DHT22;2388;53.582;9.962;2022-09-03T01:44:28;16.30;94.80
4749;DHT22;2388;53.582;9.962;2022-09-03T01:50:06;16.20;95.00
4749;DHT22;2388;53.582;9.962;2022-09-03T01:57:57;16.10;95.30
4749;DHT22;2388;53.582;9.962;2022-09-03T02:00:25;16.00;95.40
4749;DHT22;2388;53.582;9.962;2022-09-03T02:02:52;16.00;95.50
4749;DHT22;2388;53.582;9.962;2022-09-03T02:05:26;16.00;95.50
4749;DHT22;2388;53.582;9.962;2022-09-03T02:07:58;16.00;95.50
4749;DHT22;2388;53.582;9.962;2022-09-03T02:10:49;16.00;95.60
4749;DHT22;2388;53.582;9.962;2022-09-03T02:15:45;16.00;95.70
4749;DHT22;2388;53.582;9.962;2022-09-03T02:18:20;15.90;95.90
4749;DHT22;2388;53.582;9.962;2022-09-03T02:20:47;15.90;95.80
4749;DHT22;2388;53.582;9.962;2022-09-03T02:23:13;15.80;95.90
4749;DHT22;2388;53.582;9.962;2022-09-03T02:25:44;15.80;96.00
4749;DHT22;2388;53.582;9.962;2022-09-03T02:28:12;15.80;96.10
4749;DHT22;2388;53.582;9.962;2022-09-03T02:30:40;15.80;96.10
4749;DHT22;2388;53.582;9.962;2022-09-03T02:33:05;15.80;96.20
4749;DHT22;2388;53.582;9.962;2022-09-03T02:35:31;15.80;96.20
4749;DHT22;2388;53.582;9.962;2022-09-03T02:37:57;15.80;96.20
4749;DHT22;2388;53.582;9.962;2022-09-03T02:40:33;15.80;96.40
4749;DHT22;2388;53.582;9.962;2022-09-03T02:42:59;15.80;96.30
4749;DHT22;2388;53.582;9.962;2022-09-03T02:45:27;15.80;96.30
4749;DHT22;2388;53.582;9.962;2022-09-03T02:47:55;15.80;96.40
4749;DHT22;2388;53.582;9.962;2022-09-03T02:50:23;15.80;96.30
4749;DHT22;2388;53.582;9.962;2022-09-03T02:52:49;15.80;96.40
4749;DHT22;2388;53.582;9.962;2022-09-03T02:55:15;15.80;96.40
4749;DHT22;2388;53.582;9.962;2022-09-03T02:57:40;15.80;96.50
4749;DHT22;2388;53.582;9.962;2022-09-03T03:00:07;15.70;96.50
4749;DHT22;2388;53.582;9.962;2022-09-03T03:02:33;15.70;96.50
4749;DHT22;2388;53.582;9.962;2022-09-03T03:04:58;15.70;96.50
4749;DHT22;2388;53.582;9.962;2022-09-03T03:07:24;15.70;96.60
4749;DHT22;2388;53.582;9.962;2022-09-03T03:09:50;15.70;96.70
4749;DHT22;2388;53.582;9.962;2022-09-03T03:12:16;15.70;96.70
4749;DHT22;2388;53.582;9.962;2022-09-03T03:14:42;15.70;96.80
4749;DHT22;2388;53.582;9.962;2022-09-03T03:17:08;15.60;96.80
4749;DHT22;2388;53.582;9.962;2022-09-03T03:19:33;15.70;96.90
4749;DHT22;2388;53.582;9.962;2022-09-03T03:21:59;15.70;96.80
4749;DHT22;2388;53.582;9.962;2022-09-03T03:24:25;15.70;96.80
4749;DHT22;2388;53.582;9.962;2022-09-03T03:26:54;15.70;96.70
4749;DHT22;2388;53.582;9.962;2022-09-03T03:29:21;15.60;96.90
4749;DHT22;2388;53.582;9.962;2022-09-03T03:31:47;15.60;97.20
4749;DHT22;2388;53.582;9.962;2022-09-03T03:34:13;15.50;97.10
4749;DHT22;2388;53.582;9.962;2022-09-03T03:36:38;15.50;97.10
4749;DHT22;2388;53.582;9.962;2022-09-03T03:39:04;15.50;97.20
4749;DHT22;2388;53.582;9.962;2022-09-03T03:41:34;15.50;97.20
4749;DHT22;2388;53.582;9.962;2022-09-03T03:44:05;15.50;97.20
4749;DHT22;2388;53.582;9.962;2022-09-03T03:46:36;15.60;97.50
4749;DHT22;2388;53.582;9.962;2022-09-03T03:49:02;15.50;97.30
4749;DHT22;2388;53.582;9.962;2022-09-03T03:51:28;15.50;97.30
4749;DHT22;2388;53.582;9.962;2022-09-03T03:53:56;15.50;97.20
4749;DHT22;2388;53.582;9.962;2022-09-03T03:56:23;15.50;97.30
4749;DHT22;2388;53.582;9.962;2022-09-03T03:58:48;15.50;97.20
4749;DHT22;2388;53.582;9.962;2022-09-03T04:01:17;15.50;97.30
4749;DHT22;2388;53.582;9.962;2022-09-03T04:03:43;15.40;97.40
4749;DHT22;2388;53.582;9.962;2022-09-03T04:06:11;15.30;97.60
4749;DHT22;2388;53.582;9.962;2022-09-03T04:08:39;15.30;97.80
4749;DHT22;2388;53.582;9.962;2022-09-03T04:11:07;15.30;97.70
4749;DHT22;2388;53.582;9.962;2022-09-03T04:13:35;15.30;97.70
4749;DHT22;2388;53.582;9.962;2022-09-03T04:16:07;15.30;97.80
4749;DHT22;2388;53.582;9.962;2022-09-03T04:18:34;15.30;97.80
4749;DHT22;2388;53.582;9.962;2022-09-03T04:21:17;15.20;97.80
4749;DHT22;2388;53.582;9.962;2022-09-03T04:23:45;15.20;97.80
4749;DHT22;2388;53.582;9.962;2022-09-03T04:26:16;15.20;97.80
4749;DHT22;2388;53.582;9.962;2022-09-03T04:28:42;15.20;97.90
4749;DHT22;2388;53.582;9.962;2022-09-03T04:31:11;15.20;97.90
4749;DHT22;2388;53.582;9.962;2022-09-03T04:33:38;15.20;98.30
4749;DHT22;2388;53.582;9.962;2022-09-03T04:36:08;15.20;98.20
4749;DHT22;2388;53.582;9.962;2022-09-03T04:38:35;15.20;98.30
4749;DHT22;2388;53.582;9.962;2022-09-03T04:41:01;15.20;98.30
4749;DHT22;2388;53.582;9.962;2022-09-03T04:43:27;15.20;98.30
4749;DHT22;2388;53.582;9.962;2022-09-03T04:45:58;15.20;98.20
4749;DHT22;2388;53.582;9.962;2022-09-03T04:48:24;15.10;98.30
4749;DHT22;2388;53.582;9.962;2022-09-03T04:50:49;15.10;98.40
4749;DHT22;2388;53.582;9.962;2022-09-03T04:53:15;15.10;98.50
4749;DHT22;2388;53.582;9.962;2022-09-03T04:55:40;15.20;98.20
4749;DHT22;2388;53.582;9.962;2022-09-03T04:58:06;15.10;98.40
4749;DHT22;2388;53.582;9.962;2022-09-03T05:00:37;15.10;98.20
4749;DHT22;2388;53.582;9.962;2022-09-03T05:03:03;15.10;98.30
4749;DHT22;2388;53.582;9.962;2022-09-03T05:05:30;15.10;98.30
4749;DHT22;2388;53.582;9.962;2022-09-03T05:07:58;15.00;98.30
4749;DHT22;2388;53.582;9.962;2022-09-03T05:10:26;15.00;98.40
4749;DHT22;2388;53.582;9.962;2022-09-03T05:13:00;15.00;98.40
4749;DHT22;2388;53.582;9.962;2022-09-03T05:15:26;15.00;98.30
4749;DHT22;2388;53.582;9.962;2022-09-03T05:17:55;15.00;98.30
4749;DHT22;2388;53.582;9.962;2022-09-03T05:20:21;15.00;98.30
4749;DHT22;2388;53.582;9.962;2022-09-03T05:22:47;15.00;98.40
4749;DHT22;2388;53.582;9.962;2022-09-03T05:25:13;15.00;98.40
4749;DHT22;2388;53.582;9.962;2022-09-03T05:27:38;15.00;98.20
4749;DHT22;2388;53.582;9.962;2022-09-03T05:30:04;15.00;98.10
4749;DHT22;2388;53.582;9.962;2022-09-03T05:32:31;15.00;98.20
4749;DHT22;2388;53.582;9.962;2022-09-03T05:34:57;15.00;98.00
4749;DHT22;2388;53.582;9.962;2022-09-03T05:37:22;15.00;97.70
4749;DHT22;2388;53.582;9.962;2022-09-03T05:39:48;15.00;97.90
4749;DHT22;2388;53.582;9.962;2022-09-03T05:42:13;15.00;97.80
4749;DHT22;2388;53.582;9.962;2022-09-03T05:44:39;15.00;97.70
4749;DHT22;2388;53.582;9.962;2022-09-03T05:47:05;15.10;97.70
4749;DHT22;2388;53.582;9.962;2022-09-03T05:49:30;15.00;97.60
4749;DHT22;2388;53.582;9.962;2022-09-03T05:51:56;15.00;97.70
4749;DHT22;2388;53.582;9.962;2022-09-03T05:54:22;15.10;97.70
4749;DHT22;2388;53.582;9.962;2022-09-03T05:56:47;15.10;97.50
4749;DHT22;2388;53.582;9.962;2022-09-03T05:59:14;15.10;97.40
4749;DHT22;2388;53.582;9.962;2022-09-03T06:01:44;15.10;97.60
4749;DHT22;2388;53.582;9.962;2022-09-03T06:04:12;15.10;97.60
4749;DHT22;2388;53.582;9.962;2022-09-03T06:06:41;15.20;97.60
4749;DHT22;2388;53.582;9.962;2022-09-03T06:09:09;15.10;97.30
4749;DHT22;2388;53.582;9.962;2022-09-03T06:11:36;15.10;97.30
4749;DHT22;2388;53.582;9.962;2022-09-03T06:14:04;15.20;97.30
4749;DHT22;2388;53.582;9.962;2022-09-03T06:16:31;15.20;97.40
4749;DHT22;2388;53.582;9.962;2022-09-03T06:18:57;15.30;97.30
4749;DHT22;2388;53.582;9.962;2022-09-03T06:21:23;15.30;97.10
4749;DHT22;2388;53.582;9.962;2022-09-03T06:23:50;15.30;97.30
4749;DHT22;2388;53.582;9.962;2022-09-03T06:26:19;15.40;96.80
4749;DHT22;2388;53.582;9.962;2022-09-03T06:28:45;15.40;97.10
4749;DHT22;2388;53.582;9.962;2022-09-03T06:31:15;15.50;97.10
4749;DHT22;2388;53.582;9.962;2022-09-03T06:33:41;15.50;97.00
4749;DHT22;2388;53.582;9.962;2022-09-03T06:36:15;15.50;96.90
4749;DHT22;2388;53.582;9.962;2022-09-03T06:38:42;15.50;96.80
4749;DHT22;2388;53.582;9.962;2022-09-03T06:41:15;15.60;96.70
4749;DHT22;2388;53.582;9.962;2022-09-03T06:43:46;15.60;96.70
4749;DHT22;2388;53.582;9.962;2022-09-03T06:46:15;15.60;96.60
4749;DHT22;2388;53.582;9.962;2022-09-03T06:48:41;15.70;96.50
4749;DHT22;2388;53.582;9.962;2022-09-03T06:51:10;15.70;96.40
4749;DHT22;2388;53.582;9.962;2022-09-03T06:53:41;15.80;96.30
4749;DHT22;2388;53.582;9.962;2022-09-03T06:56:10;15.80;96.00
4749;DHT22;2388;53.582;9.962;2022-09-03T06:58:38;15.90;96.20
4749;DHT22;2388;53.582;9.962;2022-09-03T07:01:07;15.80;96.00
4749;DHT22;2388;53.582;9.962;2022-09-03T07:03:34;15.90;96.10
4749;DHT22;2388;53.582;9.962;2022-09-03T07:06:01;15.90;96.20
4749;DHT22;2388;53.582;9.962;2022-09-03T07:08:27;16.00;96.00
4749;DHT22;2388;53.582;9.962;2022-09-03T07:10:54;16.10;95.70
4749;DHT22;2388;53.582;9.962;2022-09-03T07:13:19;16.10;95.40
4749;DHT22;2388;53.582;9.962;2022-09-03T07:15:45;16.10;95.70
4749;DHT22;2388;53.582;9.962;2022-09-03T07:18:11;16.10;95.70
4749;DHT22;2388;53.582;9.962;2022-09-03T07:20:36;16.20;95.60
4749;DHT22;2388;53.582;9.962;2022-09-03T07:23:02;16.30;95.70
4749;DHT22;2388;53.582;9.962;2022-09-03T07:25:27;16.30;95.40
4749;DHT22;2388;53.582;9.962;2022-09-03T07:27:54;16.40;95.20
4749;DHT22;2388;53.582;9.962;2022-09-03T07:30:19;16.50;95.30
4749;DHT22;2388;53.582;9.962;2022-09-03T07:32:45;16.50;95.20
4749;DHT22;2388;53.582;9.962;2022-09-03T07:35:14;16.60;95.00
4749;DHT22;2388;53.582;9.962;2022-09-03T07:37:40;16.60;94.90
4749;DHT22;2388;53.582;9.962;2022-09-03T07:40:08;16.70;94.80
4749;DHT22;2388;53.582;9.962;2022-09-03T07:42:34;16.70;94.80
4749;DHT22;2388;53.582;9.962;2022-09-03T07:45:01;16.80;94.40
4749;DHT22;2388;53.582;9.962;2022-09-03T07:47:29;16.80;94.40
4749;DHT22;2388;53.582;9.962;2022-09-03T07:49:55;16.90;94.30
4749;DHT22;2388;53.582;9.962;2022-09-03T07:52:20;16.90;94.40
4749;DHT22;2388;53.582;9.962;2022-09-03T07:54:47;17.00;94.50
4749;DHT22;2388;53.582;9.962;2022-09-03T07:57:12;17.00;94.30
4749;DHT22;2388;53.582;9.962;2022-09-03T07:59:38;17.10;94.30
4749;DHT22;2388;53.582;9.962;2022-09-03T08:02:03;17.20;94.10
4749;DHT22;2388;53.582;9.962;2022-09-03T08:04:30;17.20;94.10
4749;DHT22;2388;53.582;9.962;2022-09-03T08:06:58;17.30;94.00
4749;DHT22;2388;53.582;9.962;2022-09-03T08:09:24;17.40;93.80
4749;DHT22;2388;53.582;9.962;2022-09-03T08:11:50;17.40;93.70
4749;DHT22;2388;53.582;9.962;2022-09-03T08:14:15;17.50;93.60
4749;DHT22;2388;53.582;9.962;2022-09-03T08:16:43;17.50;93.50
4749;DHT22;2388;53.582;9.962;2022-09-03T08:19:12;17.60;93.60
4749;DHT22;2388;53.582;9.962;2022-09-03T08:21:39;17.60;93.60
4749;DHT22;2388;53.582;9.962;2022-09-03T08:24:09;17.70;93.50
4749;DHT22;2388;53.582;9.962;2022-09-03T08:26:36;17.80;93.30
4749;DHT22;2388;53.582;9.962;2022-09-03T08:29:04;17.90;93.00
4749;DHT22;2388;53.582;9.962;2022-09-03T08:31:31;18.00;92.60
4749;DHT22;2388;53.582;9.962;2022-09-03T08:33:58;18.00;92.70
4749;DHT22;2388;53.582;9.962;2022-09-03T08:36:29;18.10;92.50
4749;DHT22;2388;53.582;9.962;2022-09-03T08:38:56;18.10;92.50
4749;DHT22;2388;53.582;9.962;2022-09-03T08:44:31;18.20;91.90
4749;DHT22;2388;53.582;9.962;2022-09-03T08:49:49;18.20;92.10
4749;DHT22;2388;53.582;9.962;2022-09-03T08:55:21;18.40;91.80
4749;DHT22;2388;53.582;9.962;2022-09-03T08:57:50;18.40;91.60
4749;DHT22;2388;53.582;9.962;2022-09-03T09:00:18;18.50;91.30
4749;DHT22;2388;53.582;9.962;2022-09-03T09:03:03;18.60;91.20
4749;DHT22;2388;53.582;9.962;2022-09-03T09:05:44;18.60;91.00
4749;DHT22;2388;53.582;9.962;2022-09-03T09:08:19;18.60;90.90
4749;DHT22;2388;53.582;9.962;2022-09-03T09:11:07;18.60;91.00
4749;DHT22;2388;53.582;9.962;2022-09-03T09:13:52;18.60;90.80
4749;DHT22;2388;53.582;9.962;2022-09-03T09:19:36;18.80;90.80
4749;DHT22;2388;53.582;9.962;2022-09-03T09:22:38;18.80;90.70
4749;DHT22;2388;53.582;9.962;2022-09-03T09:25:16;18.90;90.70
4749;DHT22;2388;53.582;9.962;2022-09-03T09:27:57;18.90;90.60
4749;DHT22;2388;53.582;9.962;2022-09-03T09:30:23;19.00;90.30
4749;DHT22;2388;53.582;9.962;2022-09-03T09:32:49;19.10;90.20
4749;DHT22;2388;53.582;9.962;2022-09-03T09:35:16;19.20;89.80
4749;DHT22;2388;53.582;9.962;2022-09-03T09:37:56;19.30;89.00
4749;DHT22;2388;53.582;9.962;2022-09-03T09:42:50;19.50;87.70
4749;DHT22;2388;53.582;9.962;2022-09-03T09:45:16;19.50;88.00
4749;DHT22;2388;53.582;9.962;2022-09-03T09:47:42;19.60;86.80
4749;DHT22;2388;53.582;9.962;2022-09-03T09:50:18;19.60;87.70
4749;DHT22;2388;53.582;9.962;2022-09-03T09:52:45;19.70;85.90
4749;DHT22;2388;53.582;9.962;2022-09-03T09:55:16;19.80;85.20
4749;DHT22;2388;53.582;9.962;2022-09-03T09:57:42;20.00;83.40
4749;DHT22;2388;53.582;9.962;2022-09-03T10:00:11;20.10;80.90
4749;DHT22;2388;53.582;9.962;2022-09-03T10:02:52;20.10;80.30
4749;DHT22;2388;53.582;9.962;2022-09-03T10:05:24;20.10;80.10
4749;DHT22;2388;53.582;9.962;2022-09-03T10:07:56;20.10;79.40
4749;DHT22;2388;53.582;9.962;2022-09-03T10:10:24;20.10;78.10
4749;DHT22;2388;53.582;9.962;2022-09-03T10:13:00;20.20;76.50
4749;DHT22;2388;53.582;9.962;2022-09-03T10:18:34;20.20;75.80
4749;DHT22;2388;53.582;9.962;2022-09-03T10:21:09;20.20;75.80
4749;DHT22;2388;53.582;9.962;2022-09-03T10:23:56;20.20;74.40
4749;DHT22;2388;53.582;9.962;2022-09-03T10:26:23;20.10;74.00
4749;DHT22;2388;53.582;9.962;2022-09-03T10:28:57;20.00;73.00
4749;DHT22;2388;53.582;9.962;2022-09-03T10:33:59;20.10;73.10
4749;DHT22;2388;53.582;9.962;2022-09-03T10:39:28;20.20;73.10
4749;DHT22;2388;53.582;9.962;2022-09-03T10:45:17;20.30;73.80
4749;DHT22;2388;53.582;9.962;2022-09-03T10:50:30;20.50;70.90
4749;DHT22;2388;53.582;9.962;2022-09-03T10:53:10;20.70;70.10
4749;DHT22;2388;53.582;9.962;2022-09-03T10:56:00;20.90;68.40
4749;DHT22;2388;53.582;9.962;2022-09-03T10:58:53;21.00;70.10
4749;DHT22;2388;53.582;9.962;2022-09-03T11:04:32;21.10;69.40
4749;DHT22;2388;53.582;9.962;2022-09-03T11:07:05;21.00;68.60
4749;DHT22;2388;53.582;9.962;2022-09-03T11:09:45;21.00;68.10
4749;DHT22;2388;53.582;9.962;2022-09-03T11:12:19;21.00;68.40
4749;DHT22;2388;53.582;9.962;2022-09-03T11:15:06;21.00;67.10
4749;DHT22;2388;53.582;9.962;2022-09-03T11:17:45;20.90;67.20
4749;DHT22;2388;53.582;9.962;2022-09-03T11:20:23;20.90;66.10
4749;DHT22;2388;53.582;9.962;2022-09-03T11:22:55;21.00;64.40
4749;DHT22;2388;53.582;9.962;2022-09-03T11:25:25;21.00;63.90
4749;DHT22;2388;53.582;9.962;2022-09-03T11:28:01;21.10;64.10
4749;DHT22;2388;53.582;9.962;2022-09-03T11:30:47;21.10;64.70
4749;DHT22;2388;53.582;9.962;2022-09-03T11:33:18;21.00;63.80
4749;DHT22;2388;53.582;9.962;2022-09-03T11:35:45;21.00;63.40
4749;DHT22;2388;53.582;9.962;2022-09-03T11:43:34;21.30;62.20
4749;DHT22;2388;53.582;9.962;2022-09-03T11:46:09;21.30;62.00
4749;DHT22;2388;53.582;9.962;2022-09-03T11:48:46;21.30;61.50
4749;DHT22;2388;53.582;9.962;2022-09-03T11:51:31;21.30;63.00
4749;DHT22;2388;53.582;9.962;2022-09-03T11:54:05;21.50;61.90
4749;DHT22;2388;53.582;9.962;2022-09-03T11:56:33;21.40;59.90
4749;DHT22;2388;53.582;9.962;2022-09-03T11:59:23;21.40;59.20
4749;DHT22;2388;53.582;9.962;2022-09-03T12:01:57;21.50;58.50
4749;DHT22;2388;53.582;9.962;2022-09-03T12:04:55;21.50;57.90
4749;DHT22;2388;53.582;9.962;2022-09-03T12:07:43;21.50;57.90
4749;DHT22;2388;53.582;9.962;2022-09-03T12:18:42;21.50;56.30
4749;DHT22;2388;53.582;9.962;2022-09-03T12:21:10;21.60;56.20
4749;DHT22;2388;53.582;9.962;2022-09-03T12:26:20;21.50;57.50
4749;DHT22;2388;53.582;9.962;2022-09-03T12:28:52;21.50;57.30
4749;DHT22;2388;53.582;9.962;2022-09-03T12:31:28;21.70;58.70
4749;DHT22;2388;53.582;9.962;2022-09-03T12:34:13;21.80;55.90
4749;DHT22;2388;53.582;9.962;2022-09-03T12:36:51;21.90;54.70
4749;DHT22;2388;53.582;9.962;2022-09-03T12:39:20;22.10;55.30
4749;DHT22;2388;53.582;9.962;2022-09-03T12:42:01;22.10;54.30
4749;DHT22;2388;53.582;9.962;2022-09-03T12:44:31;22.30;53.90
4749;DHT22;2388;53.582;9.962;2022-09-03T12:49:25;22.40;52.40
4749;DHT22;2388;53.582;9.962;2022-09-03T12:51:59;22.50;52.20
4749;DHT22;2388;53.582;9.962;2022-09-03T12:54:27;22.60;51.60
4749;DHT22;2388;53.582;9.962;2022-09-03T12:56:57;22.60;50.70
4749;DHT22;2388;53.582;9.962;2022-09-03T12:59:26;22.50;50.50
4749;DHT22;2388;53.582;9.962;2022-09-03T13:01:57;22.60;51.20
4749;DHT22;2388;53.582;9.962;2022-09-03T13:04:28;22.80;50.60
4749;DHT22;2388;53.582;9.962;2022-09-03T13:07:45;23.00;50.90
4749;DHT22;2388;53.582;9.962;2022-09-03T13:09:59;23.10;48.20
4749;DHT22;2388;53.582;9.962;2022-09-03T13:12:31;23.10;49.10
4749;DHT22;2388;53.582;9.962;2022-09-03T13:14:57;23.10;48.90
4749;DHT22;2388;53.582;9.962;2022-09-03T13:17:34;23.10;50.70
4749;DHT22;2388;53.582;9.962;2022-09-03T13:20:38;23.00;49.50
4749;DHT22;2388;53.582;9.962;2022-09-03T13:26:08;23.10;47.70
4749;DHT22;2388;53.582;9.962;2022-09-03T13:31:40;23.10;47.70
4749;DHT22;2388;53.582;9.962;2022-09-03T13:34:15;23.30;46.00
4749;DHT22;2388;53.582;9.962;2022-09-03T13:36:53;23.30;46.30
4749;DHT22;2388;53.582;9.962;2022-09-03T13:39:23;23.20;45.50
4749;DHT22;2388;53.582;9.962;2022-09-03T13:42:19;23.10;45.30
4749;DHT22;2388;53.582;9.962;2022-09-03T13:44:58;22.80;45.40
4749;DHT22;2388;53.582;9.962;2022-09-03T13:47:42;22.70;46.00
4749;DHT22;2388;53.582;9.962;2022-09-03T13:50:36;22.60;45.60
4749;DHT22;2388;53.582;9.962;2022-09-03T13:53:08;22.50;45.20
4749;DHT22;2388;53.582;9.962;2022-09-03T13:55:47;22.40;45.60
4749;DHT22;2388;53.582;9.962;2022-09-03T13:58:30;22.30;45.10
4749;DHT22;2388;53.582;9.962;2022-09-03T14:03:43;22.20;45.30
4749;DHT22;2388;53.582;9.962;2022-09-03T14:12:01;22.10;45.60
4749;DHT22;2388;53.582;9.962;2022-09-03T14:14:36;22.00;47.20
4749;DHT22;2388;53.582;9.962;2022-09-03T14:17:12;22.00;46.10
4749;DHT22;2388;53.582;9.962;2022-09-03T14:25:03;22.10;46.70
4749;DHT22;2388;53.582;9.962;2022-09-03T14:27:33;22.00;45.80
4749;DHT22;2388;53.582;9.962;2022-09-03T14:32:55;22.10;45.50
4749;DHT22;2388;53.582;9.962;2022-09-03T14:38:14;22.00;44.90
4749;DHT22;2388;53.582;9.962;2022-09-03T14:40:46;22.00;44.20
4749;DHT22;2388;53.582;9.962;2022-09-03T14:49:37;21.90;44.20
4749;DHT22;2388;53.582;9.962;2022-09-03T14:52:31;21.90;43.90
4749;DHT22;2388;53.582;9.962;2022-09-03T15:00:45;22.00;44.00
4749;DHT22;2388;53.582;9.962;2022-09-03T15:08:48;21.90;43.20
4749;DHT22;2388;53.582;9.962;2022-09-03T15:11:19;21.80;43.70
4749;DHT22;2388;53.582;9.962;2022-09-03T15:14:05;21.90;44.30
4749;DHT22;2388;53.582;9.962;2022-09-03T15:16:45;21.80;43.70
4749;DHT22;2388;53.582;9.962;2022-09-03T15:19:38;21.80;44.80
4749;DHT22;2388;53.582;9.962;2022-09-03T15:24:48;21.90;44.40
4749;DHT22;2388;53.582;9.962;2022-09-03T15:27:39;21.80;44.20
4749;DHT22;2388;53.582;9.962;2022-09-03T15:30:11;21.80;43.90
4749;DHT22;2388;53.582;9.962;2022-09-03T15:40:59;21.70;44.60
4749;DHT22;2388;53.582;9.962;2022-09-03T15:43:28;21.70;44.40
4749;DHT22;2388;53.582;9.962;2022-09-03T15:45:58;21.70;44.40
4749;DHT22;2388;53.582;9.962;2022-09-03T15:48:34;21.60;44.80
4749;DHT22;2388;53.582;9.962;2022-09-03T15:51:24;21.60;45.00
4749;DHT22;2388;53.582;9.962;2022-09-03T15:53:58;21.60;45.00
4749;DHT22;2388;53.582;9.962;2022-09-03T15:56:35;21.60;45.20
4749;DHT22;2388;53.582;9.962;2022-09-03T16:02:17;21.50;45.20
4749;DHT22;2388;53.582;9.962;2022-09-03T16:05:02;21.50;45.10
4749;DHT22;2388;53.582;9.962;2022-09-03T16:15:12;21.50;45.10
4749;DHT22;2388;53.582;9.962;2022-09-03T16:18:07;21.50;45.10
4749;DHT22;2388;53.582;9.962;2022-09-03T16:20:40;21.50;45.40
4749;DHT22;2388;53.582;9.962;2022-09-03T16:23:25;21.40;45.00
4749;DHT22;2388;53.582;9.962;2022-09-03T16:26:10;21.40;45.10
4749;DHT22;2388;53.582;9.962;2022-09-03T16:28:49;21.30;45.20
4749;DHT22;2388;53.582;9.962;2022-09-03T16:42:42;21.20;45.90
4749;DHT22;2388;53.582;9.962;2022-09-03T16:45:13;21.20;45.30
4749;DHT22;2388;53.582;9.962;2022-09-03T16:53:54;21.10;45.80
4749;DHT22;2388;53.582;9.962;2022-09-03T17:05:36;21.00;46.20
4749;DHT22;2388;53.582;9.962;2022-09-03T17:08:18;20.90;46.00
4749;DHT22;2388;53.582;9.962;2022-09-03T17:10:52;20.90;45.90
4749;DHT22;2388;53.582;9.962;2022-09-03T17:13:45;20.90;46.50
4749;DHT22;2388;53.582;9.962;2022-09-03T17:19:23;20.80;46.60
4749;DHT22;2388;53.582;9.962;2022-09-03T17:22:08;20.80;46.80
4749;DHT22;2388;53.582;9.962;2022-09-03T17:24:50;20.80;47.10
4749;DHT22;2388;53.582;9.962;2022-09-03T17:36:26;20.70;47.90
4749;DHT22;2388;53.582;9.962;2022-09-03T17:42:00;20.60;48.40
4749;DHT22;2388;53.582;9.962;2022-09-03T17:50:25;20.50;49.30
4749;DHT22;2388;53.582;9.962;2022-09-03T17:52:56;20.50;49.60
4749;DHT22;2388;53.582;9.962;2022-09-03T17:58:21;20.40;49.50
4749;DHT22;2388;53.582;9.962;2022-09-03T18:01:06;20.40;49.70
4749;DHT22;2388;53.582;9.962;2022-09-03T18:03:52;20.30;49.60
4749;DHT22;2388;53.582;9.962;2022-09-03T18:06:42;20.30;50.50
4749;DHT22;2388;53.582;9.962;2022-09-03T18:11:50;20.30;50.40
4749;DHT22;2388;53.582;9.962;2022-09-03T18:14:27;20.30;50.30
4749;DHT22;2388;53.582;9.962;2022-09-03T18:19:38;20.20;50.70
4749;DHT22;2388;53.582;9.962;2022-09-03T18:22:39;20.20;50.70
4749;DHT22;2388;53.582;9.962;2022-09-03T18:25:27;20.20;51.10
4749;DHT22;2388;53.582;9.962;2022-09-03T18:28:15;20.10;51.10
4749;DHT22;2388;53.582;9.962;2022-09-03T18:31:00;20.10;51.90
4749;DHT22;2388;53.582;9.962;2022-09-03T18:33:44;20.10;51.70
4749;DHT22;2388;53.582;9.962;2022-09-03T18:36:30;20.00;51.80
4749;DHT22;2388;53.582;9.962;2022-09-03T18:39:26;20.00;51.80
4749;DHT22;2388;53.582;9.962;2022-09-03T18:45:34;20.00;52.40
4749;DHT22;2388;53.582;9.962;2022-09-03T18:57:19;19.90;53.30
4749;DHT22;2388;53.582;9.962;2022-09-03T19:00:08;19.80;53.40
4749;DHT22;2388;53.582;9.962;2022-09-03T19:06:14;19.70;53.70
4749;DHT22;2388;53.582;9.962;2022-09-03T19:15:24;19.70;54.50
4749;DHT22;2388;53.582;9.962;2022-09-03T19:21:28;19.60;54.60
4749;DHT22;2388;53.582;9.962;2022-09-03T19:24:15;19.60;54.70
4749;DHT22;2388;53.582;9.962;2022-09-03T19:27:08;19.50;55.00
4749;DHT22;2388;53.582;9.962;2022-09-03T19:30:06;19.50;55.40
4749;DHT22;2388;53.582;9.962;2022-09-03T19:33:22;19.50;55.50
4749;DHT22;2388;53.582;9.962;2022-09-03T19:36:19;19.50;55.60
4749;DHT22;2388;53.582;9.962;2022-09-03T19:39:37;19.40;55.60
4749;DHT22;2388;53.582;9.962;2022-09-03T19:48:47;19.30;56.20
4749;DHT22;2388;53.582;9.962;2022-09-03T19:54:33;19.30;56.50
4749;DHT22;2388;53.582;9.962;2022-09-03T19:57:19;19.20;56.50
4749;DHT22;2388;53.582;9.962;2022-09-03T20:00:05;19.20;56.70
4749;DHT22;2388;53.582;9.962;2022-09-03T20:02:49;19.20;56.80
4749;DHT22;2388;53.582;9.962;2022-09-03T20:05:34;19.10;56.80
4749;DHT22;2388;53.582;9.962;2022-09-03T20:08:22;19.10;56.80
4749;DHT22;2388;53.582;9.962;2022-09-03T20:11:10;19.10;57.00
4749;DHT22;2388;53.582;9.962;2022-09-03T20:13:39;19.00;57.00
4749;DHT22;2388;53.582;9.962;2022-09-03T20:16:30;19.00;57.30
4749;DHT22;2388;53.582;9.962;2022-09-03T20:21:58;18.90;57.60
4749;DHT22;2388;53.582;9.962;2022-09-03T20:24:52;18.90;57.60
4749;DHT22;2388;53.582;9.962;2022-09-03T20:30:15;18.90;58.40
4749;DHT22;2388;53.582;9.962;2022-09-03T20:35:32;18.90;58.90
4749;DHT22;2388;53.582;9.962;2022-09-03T20:44:18;18.80;59.20
4749;DHT22;2388;53.582;9.962;2022-09-03T20:47:13;18.80;59.60
4749;DHT22;2388;53.582;9.962;2022-09-03T20:50:07;18.80;59.60
4749;DHT22;2388;53.582;9.962;2022-09-03T20:58:15;18.70;60.50
4749;DHT22;2388;53.582;9.962;2022-09-03T21:00:51;18.70;60.90
4749;DHT22;2388;53.582;9.962;2022-09-03T21:03:21;18.60;61.40
4749;DHT22;2388;53.582;9.962;2022-09-03T21:06:10;18.60;62.10
4749;DHT22;2388;53.582;9.962;2022-09-03T21:14:26;18.50;64.10
4749;DHT22;2388;53.582;9.962;2022-09-03T21:19:40;18.40;66.20
4749;DHT22;2388;53.582;9.962;2022-09-03T21:24:43;18.40;68.30